Terminal Aerodrome Forecast
Issued by NWS

Current Version | Previous Version | Graphics & Text | Print | Product List | Glossary On
Versions: 1 2 3 4 5 6 7 8 9 10 11 12 13 14 15 16 17 18 19 20 21 22
144
FTUS41 KPBZ 220100 AAA
TAFMGW
TAF AMD
KMGW 220100Z 2201/2224 36003KT 5SM BR VCSH SCT003 OVC007
      TEMPO 2201/2202 BKN003
     FM221400 34005KT P6SM BKN015
     FM221500 34005KT P6SM BKN025
     FM221700 34006KT P6SM -SHRA BKN035=

USA.gov is the U.S. government's official web portal to all federal, state and local government web resources and services.